Time;durP1;ratioP1;P1;durP2;ratioP2;P2;SDS_P1;SDS_P2;PMS_P1;PMS_P2;Temp;Humidity;BMP_temperature;BMP_pressure;BME280_temperature;BME280_humidity;BME280_pressure;Samples;Min_cycle;Max_cycle;Signal;HPM_P1;HPM_P2
2023/03/29 00:00:13;;;;;;;;;11.00;10.00;;;;;;;;5060673;28;11493;-80
2023/03/29 00:02:47;;;;;;;;;13.00;8.75;;;;;;;;5060437;28;11412;-79
2023/03/29 00:05:14;;;;;;;;;9.25;8.25;;;;;;;;5076606;28;11425;-80
2023/03/29 00:07:41;;;;;;;;;6.25;6.25;;;;;;;;5068672;28;11156;-79
2023/03/29 00:10:08;;;;;;;;;8.25;7.75;;;;;;;;5079720;28;11097;-80
2023/03/29 00:12:35;;;;;;;;;6.50;6.50;;;;;;;;5062317;28;11384;-80
2023/03/29 00:15:01;;;;;;;;;5.25;4.00;;;;;;;;5060551;28;11430;-80
2023/03/29 00:17:27;;;;;;;;;5.50;5.00;;;;;;;;5060625;28;11412;-80
2023/03/29 00:19:52;;;;;;;;;4.25;4.00;;;;;;;;5060492;28;11504;-80
2023/03/29 00:22:18;;;;;;;;;8.75;6.00;;;;;;;;5061556;28;8783;-79
2023/03/29 00:24:46;;;;;;;;;5.75;5.00;;;;;;;;5061525;28;8877;-79
2023/03/29 00:27:12;;;;;;;;;6.00;5.00;;;;;;;;5070218;28;8820;-79
2023/03/29 00:29:37;;;;;;;;;7.00;5.00;;;;;;;;5080548;28;10830;-79
2023/03/29 00:32:03;;;;;;;;;9.50;9.50;;;;;;;;5080592;28;9506;-80
2023/03/29 00:34:34;;;;;;;;;8.00;6.50;;;;;;;;5080090;28;8788;-79
2023/03/29 00:37:00;;;;;;;;;8.25;5.25;;;;;;;;5081569;28;8787;-80
2023/03/29 00:39:26;;;;;;;;;12.50;8.50;;;;;;;;5078991;28;11501;-80
2023/03/29 00:41:52;;;;;;;;;7.00;7.00;;;;;;;;5060550;28;12185;-80
2023/03/29 00:44:37;;;;;;;;;8.50;5.50;;;;;;;;5060481;28;8860;-80
2023/03/29 00:47:02;;;;;;;;;10.00;7.25;;;;;;;;5060525;28;11481;-80
2023/03/29 00:49:28;;;;;;;;;7.50;7.50;;;;;;;;5061113;28;11471;-80
2023/03/29 00:51:54;;;;;;;;;9.00;6.00;;;;;;;;5059903;28;10171;-80
2023/03/29 00:54:19;;;;;;;;;7.00;5.00;;;;;;;;5060458;28;8830;-80
2023/03/29 00:56:46;;;;;;;;;8.00;8.00;;;;;;;;5061030;28;8861;-79
2023/03/29 00:59:17;;;;;;;;;9.75;7.25;;;;;;;;5074475;28;8923;-79
2023/03/29 01:01:52;;;;;;;;;9.75;8.00;;;;;;;;5081185;28;11378;-79
2023/03/29 01:04:24;;;;;;;;;8.00;6.00;;;;;;;;5083594;28;11410;-79
2023/03/29 01:06:58;;;;;;;;;9.50;7.75;;;;;;;;5083101;28;11363;-79
2023/03/29 01:09:25;;;;;;;;;4.50;4.50;;;;;;;;5085169;28;11167;-79
2023/03/29 01:11:53;;;;;;;;;8.25;7.00;;;;;;;;5085027;28;11353;-79
2023/03/29 01:14:21;;;;;;;;;8.25;6.75;;;;;;;;5084612;28;11089;-79
2023/03/29 01:16:47;;;;;;;;;8.75;7.00;;;;;;;;5083279;28;10968;-79
2023/03/29 01:19:14;;;;;;;;;10.00;7.75;;;;;;;;5082942;28;11413;-79
2023/03/29 01:21:56;;;;;;;;;4.75;4.75;;;;;;;;5083235;28;11057;-79
2023/03/29 01:24:45;;;;;;;;;9.75;7.50;;;;;;;;5084782;28;11395;-79
2023/03/29 01:27:30;;;;;;;;;5.00;5.00;;;;;;;;5083035;28;11421;-79
2023/03/29 01:29:59;;;;;;;;;9.00;6.50;;;;;;;;5082953;28;11190;-79
2023/03/29 01:32:29;;;;;;;;;5.00;5.00;;;;;;;;5082778;28;11414;-80
2023/03/29 01:35:12;;;;;;;;;7.75;7.25;;;;;;;;5083659;28;11485;-79
2023/03/29 01:37:41;;;;;;;;;7.25;5.25;;;;;;;;5082356;28;11059;-79
2023/03/29 01:40:07;;;;;;;;;10.75;7.00;;;;;;;;5084740;28;11145;-79
2023/03/29 01:42:45;;;;;;;;;7.50;7.50;;;;;;;;5082785;28;11532;-79
2023/03/29 01:45:11;;;;;;;;;6.50;6.50;;;;;;;;5083213;28;8800;-79
2023/03/29 01:47:46;;;;;;;;;11.75;7.75;;;;;;;;5083266;28;10973;-79
2023/03/29 01:50:18;;;;;;;;;10.75;8.00;;;;;;;;5082264;28;11092;-79
2023/03/29 01:52:56;;;;;;;;;5.75;5.75;;;;;;;;5084236;28;10885;-79
2023/03/29 01:55:25;;;;;;;;;8.00;7.25;;;;;;;;5082332;28;11461;-79
2023/03/29 01:57:51;;;;;;;;;7.00;6.00;;;;;;;;5082829;28;11154;-79
2023/03/29 02:00:19;;;;;;;;;6.50;6.00;;;;;;;;5084285;28;12035;-79
2023/03/29 02:02:46;;;;;;;;;7.00;6.75;;;;;;;;5083169;28;11395;-79
2023/03/29 02:05:13;;;;;;;;;7.75;4.50;;;;;;;;5083880;28;11313;-79
2023/03/29 02:07:40;;;;;;;;;9.50;5.50;;;;;;;;5084220;28;11099;-79
2023/03/29 02:10:07;;;;;;;;;7.00;7.00;;;;;;;;5083731;28;11094;-79
2023/03/29 02:12:32;;;;;;;;;5.50;5.50;;;;;;;;5082675;28;11384;-79
2023/03/29 02:14:59;;;;;;;;;9.50;6.25;;;;;;;;5082902;28;11428;-79
2023/03/29 02:17:26;;;;;;;;;10.25;5.50;;;;;;;;5082638;28;8794;-79
2023/03/29 02:19:54;;;;;;;;;8.00;6.25;;;;;;;;5083416;28;11085;-79
2023/03/29 02:22:26;;;;;;;;;5.75;5.75;;;;;;;;5083506;28;11389;-79
2023/03/29 02:24:55;;;;;;;;;6.00;6.00;;;;;;;;5081896;28;11513;-79
2023/03/29 02:27:20;;;;;;;;;7.00;7.00;;;;;;;;5103009;28;11456;-79
2023/03/29 02:29:47;;;;;;;;;6.75;6.00;;;;;;;;5103708;28;11060;-79
2023/03/29 02:32:24;;;;;;;;;9.00;7.25;;;;;;;;5087941;28;11470;-79
2023/03/29 02:34:55;;;;;;;;;10.50;7.00;;;;;;;;5103651;28;8723;-79
2023/03/29 02:37:23;;;;;;;;;9.50;7.25;;;;;;;;5085896;28;11494;-80
2023/03/29 02:39:50;;;;;;;;;8.00;5.00;;;;;;;;5085622;28;11442;-79
2023/03/29 02:42:19;;;;;;;;;8.50;5.75;;;;;;;;5085888;28;11414;-79
2023/03/29 02:44:46;;;;;;;;;9.50;7.75;;;;;;;;5071251;28;10963;-79
2023/03/29 02:47:19;;;;;;;;;8.75;8.75;;;;;;;;5083240;28;11494;-79
2023/03/29 02:49:45;;;;;;;;;6.25;4.25;;;;;;;;5069575;28;11389;-79
2023/03/29 02:52:13;;;;;;;;;8.50;6.50;;;;;;;;5085475;28;11381;-79
2023/03/29 02:54:42;;;;;;;;;6.75;4.75;;;;;;;;5102993;28;12360;-79
2023/03/29 02:57:07;;;;;;;;;5.75;5.75;;;;;;;;5086552;28;11424;-79
2023/03/29 02:59:33;;;;;;;;;9.00;6.75;;;;;;;;5086497;28;11095;-79
2023/03/29 03:02:00;;;;;;;;;6.75;6.50;;;;;;;;5102863;28;8724;-79
2023/03/29 03:04:25;;;;;;;;;6.25;6.00;;;;;;;;5084968;28;11216;-79
2023/03/29 03:06:51;;;;;;;;;10.75;7.50;;;;;;;;5103322;28;11562;-79
2023/03/29 03:09:16;;;;;;;;;7.00;5.75;;;;;;;;5089651;28;8927;-79
2023/03/29 03:11:41;;;;;;;;;8.75;7.00;;;;;;;;5065164;28;9879;-80
2023/03/29 03:14:07;;;;;;;;;8.00;6.25;;;;;;;;5064877;28;8825;-80
2023/03/29 03:16:32;;;;;;;;;9.50;5.50;;;;;;;;5064692;28;9578;-79
2023/03/29 03:18:59;;;;;;;;;6.25;5.00;;;;;;;;5064849;28;8812;-79
2023/03/29 03:21:27;;;;;;;;;4.50;4.50;;;;;;;;5082855;28;8887;-80
2023/03/29 03:23:53;;;;;;;;;15.00;10.00;;;;;;;;5083091;28;11526;-80
2023/03/29 03:26:18;;;;;;;;;7.00;6.00;;;;;;;;5062675;28;11449;-80
2023/03/29 03:28:47;;;;;;;;;9.00;8.00;;;;;;;;5064844;28;11132;-80
2023/03/29 03:31:13;;;;;;;;;11.00;7.50;;;;;;;;5072674;28;10441;-79
2023/03/29 03:33:41;;;;;;;;;7.50;4.75;;;;;;;;5103284;28;11562;-79
2023/03/29 03:36:08;;;;;;;;;8.00;5.50;;;;;;;;5084453;28;8799;-79
2023/03/29 03:38:34;;;;;;;;;7.75;6.25;;;;;;;;5084966;28;10873;-79
2023/03/29 03:41:00;;;;;;;;;9.50;5.50;;;;;;;;5084490;28;11433;-79
2023/03/29 03:43:26;;;;;;;;;4.25;4.25;;;;;;;;5103011;28;11549;-79
2023/03/29 03:45:51;;;;;;;;;10.00;8.00;;;;;;;;5084421;28;8791;-79
2023/03/29 03:48:17;;;;;;;;;5.00;5.00;;;;;;;;5102814;28;8835;-79
2023/03/29 03:50:52;;;;;;;;;12.00;7.00;;;;;;;;5084411;28;9939;-79
2023/03/29 03:53:18;;;;;;;;;12.50;5.00;;;;;;;;5084435;28;8827;-79
2023/03/29 03:56:01;;;;;;;;;10.00;8.00;;;;;;;;5084003;28;12439;-79
2023/03/29 03:58:38;;;;;;;;;9.75;6.00;;;;;;;;5102756;28;11457;-79
2023/03/29 04:01:10;;;;;;;;;4.75;4.00;;;;;;;;5083959;28;11471;-79
2023/03/29 04:03:39;;;;;;;;;6.25;6.25;;;;;;;;5102896;28;10957;-79
2023/03/29 04:06:05;;;;;;;;;11.25;5.75;;;;;;;;5084355;28;11196;-79
2023/03/29 04:08:31;;;;;;;;;5.25;5.25;;;;;;;;5084345;28;11470;-79
2023/03/29 04:10:57;;;;;;;;;7.00;7.00;;;;;;;;5084294;28;8917;-79
2023/03/29 04:13:22;;;;;;;;;7.00;5.25;;;;;;;;5102055;28;8818;-79
2023/03/29 04:15:57;;;;;;;;;8.50;7.50;;;;;;;;5084595;28;10794;-80
2023/03/29 04:18:22;;;;;;;;;11.00;6.75;;;;;;;;5102231;28;8787;-79
2023/03/29 04:20:48;;;;;;;;;9.00;8.50;;;;;;;;5083868;28;12263;-79
2023/03/29 04:23:14;;;;;;;;;11.00;7.50;;;;;;;;5084313;28;8823;-79
2023/03/29 04:25:40;;;;;;;;;8.75;7.50;;;;;;;;5083305;28;8845;-80
2023/03/29 04:28:05;;;;;;;;;7.75;7.25;;;;;;;;5083536;28;11420;-79
2023/03/29 04:30:30;;;;;;;;;6.25;5.50;;;;;;;;5101953;28;9437;-79
2023/03/29 04:32:56;;;;;;;;;11.50;8.25;;;;;;;;5084267;28;8826;-80
2023/03/29 04:35:21;;;;;;;;;8.00;8.00;;;;;;;;5083259;28;8827;-79
2023/03/29 04:37:47;;;;;;;;;6.25;6.00;;;;;;;;5104173;28;8791;-80
2023/03/29 04:40:13;;;;;;;;;11.50;5.00;;;;;;;;5105854;28;8934;-80
2023/03/29 04:42:43;;;;;;;;;7.50;6.00;;;;;;;;5087095;28;8758;-79
2023/03/29 04:45:09;;;;;;;;;7.00;6.00;;;;;;;;5068774;28;11210;-79
2023/03/29 04:47:38;;;;;;;;;9.75;7.00;;;;;;;;5085654;28;11365;-79
2023/03/29 04:50:04;;;;;;;;;8.00;6.75;;;;;;;;5066628;28;11884;-79
2023/03/29 04:52:31;;;;;;;;;7.50;3.75;;;;;;;;5085176;28;11099;-79
2023/03/29 04:54:57;;;;;;;;;7.25;7.25;;;;;;;;5086604;28;11106;-79
2023/03/29 04:57:22;;;;;;;;;4.75;4.00;;;;;;;;5105304;28;11101;-79
2023/03/29 04:59:48;;;;;;;;;5.25;4.00;;;;;;;;5105659;28;8815;-79
2023/03/29 05:02:13;;;;;;;;;6.00;4.75;;;;;;;;5085468;28;8846;-79
2023/03/29 05:04:38;;;;;;;;;6.50;5.50;;;;;;;;5095825;28;8983;-79
2023/03/29 05:07:05;;;;;;;;;6.00;6.00;;;;;;;;5099350;28;9613;-79
2023/03/29 05:09:30;;;;;;;;;7.00;3.00;;;;;;;;5075919;28;9992;-79
2023/03/29 05:11:56;;;;;;;;;3.50;2.00;;;;;;;;5075966;28;10685;-86
2023/03/29 05:14:22;;;;;;;;;2.75;2.75;;;;;;;;5086905;28;9233;-82
2023/03/29 05:16:48;;;;;;;;;4.50;2.00;;;;;;;;5070309;28;8787;-83
2023/03/29 05:19:14;;;;;;;;;5.50;2.00;;;;;;;;5086530;28;11388;-83
2023/03/29 05:21:40;;;;;;;;;6.50;3.00;;;;;;;;5066803;28;11048;-84
2023/03/29 05:24:05;;;;;;;;;4.00;3.00;;;;;;;;5086033;28;8788;-82
2023/03/29 05:26:30;;;;;;;;;2.75;2.25;;;;;;;;5065344;28;9634;-82
2023/03/29 05:28:56;;;;;;;;;4.00;2.00;;;;;;;;5075175;28;9915;-81
2023/03/29 05:31:22;;;;;;;;;2.75;2.00;;;;;;;;5104946;28;8818;-85
2023/03/29 05:33:49;;;;;;;;;2.00;1.25;;;;;;;;5102272;28;8800;-87
2023/03/29 05:36:15;;;;;;;;;1.00;1.00;;;;;;;;5086681;28;10896;-84
2023/03/29 05:39:00;;;;;;;;;3.50;3.00;;;;;;;;5086956;28;11006;-84
2023/03/29 05:41:32;;;;;;;;;3.25;3.00;;;;;;;;5078489;28;11143;-83
2023/03/29 05:43:57;;;;;;;;;5.75;4.00;;;;;;;;5075906;28;10703;-84
2023/03/29 05:46:34;;;;;;;;;3.00;2.00;;;;;;;;5071947;28;11197;-87
2023/03/29 05:49:01;;;;;;;;;3.25;3.25;;;;;;;;5083223;28;8849;-87
2023/03/29 05:51:47;;;;;;;;;2.75;2.25;;;;;;;;5086086;28;11012;-89
2023/03/29 05:54:15;;;;;;;;;3.50;3.00;;;;;;;;5084542;28;10967;-87
2023/03/29 05:56:45;;;;;;;;;5.00;3.00;;;;;;;;5065107;28;11026;-87
2023/03/29 05:59:12;;;;;;;;;3.00;3.00;;;;;;;;5102169;28;11403;-87
2023/03/29 06:01:38;;;;;;;;;3.75;3.75;;;;;;;;5086545;28;10920;-87
2023/03/29 06:04:05;;;;;;;;;2.00;2.00;;;;;;;;5068153;28;11136;-87
2023/03/29 06:06:32;;;;;;;;;1.75;1.75;;;;;;;;5083975;28;10912;-87
2023/03/29 06:09:04;;;;;;;;;3.25;1.75;;;;;;;;5068226;28;11068;-85
2023/03/29 06:11:31;;;;;;;;;2.00;2.00;;;;;;;;5077432;28;10918;-85
2023/03/29 06:13:57;;;;;;;;;2.00;2.00;;;;;;;;5084400;28;10998;-85
2023/03/29 06:16:22;;;;;;;;;8.00;1.00;;;;;;;;5085902;28;11128;-84
2023/03/29 06:18:47;;;;;;;;;3.75;1.00;;;;;;;;5103367;28;8838;-85
2023/03/29 06:21:19;;;;;;;;;2.75;2.75;;;;;;;;5085724;28;9462;-88
2023/03/29 06:23:48;;;;;;;;;4.00;3.00;;;;;;;;5085603;28;8863;-85
2023/03/29 06:26:13;;;;;;;;;1.00;1.00;;;;;;;;5075699;28;11035;-85
2023/03/29 06:28:39;;;;;;;;;4.50;3.00;;;;;;;;5097344;28;11172;-85
2023/03/29 06:31:08;;;;;;;;;3.25;3.25;;;;;;;;5087482;28;9438;-87
2023/03/29 06:36:37;;;;;;;;;4.25;4.00;;;;;;;;5102895;28;10903;-85
2023/03/29 06:39:03;;;;;;;;;5.75;3.75;;;;;;;;5079443;28;11207;-86
2023/03/29 06:41:29;;;;;;;;;4.50;3.00;;;;;;;;5089267;28;8791;-82
2023/03/29 06:43:55;;;;;;;;;4.50;3.00;;;;;;;;5070899;28;10878;-81
2023/03/29 06:46:20;;;;;;;;;5.00;5.00;;;;;;;;5074561;28;8960;-81
2023/03/29 06:49:00;;;;;;;;;5.75;5.00;;;;;;;;5082221;28;9907;-81
2023/03/29 06:51:30;;;;;;;;;5.00;2.00;;;;;;;;5074149;28;8766;-81
2023/03/29 06:53:55;;;;;;;;;3.75;2.25;;;;;;;;5074167;28;10505;-82
2023/03/29 06:56:21;;;;;;;;;4.00;3.00;;;;;;;;5084304;28;8838;-82
2023/03/29 06:58:47;;;;;;;;;3.50;3.50;;;;;;;;5085021;28;9962;-82
2023/03/29 07:01:12;;;;;;;;;2.75;2.75;;;;;;;;5084846;28;8763;-82
2023/03/29 07:03:38;;;;;;;;;2.75;2.75;;;;;;;;5085064;28;10603;-82
2023/03/29 07:06:08;;;;;;;;;3.00;3.00;;;;;;;;5084596;28;8819;-82
2023/03/29 07:08:36;;;;;;;;;3.75;3.75;;;;;;;;5082413;28;8793;-82
2023/03/29 07:11:02;;;;;;;;;5.00;3.50;;;;;;;;5064789;28;10729;-81
2023/03/29 07:13:27;;;;;;;;;6.25;3.75;;;;;;;;5064866;28;10790;-82
2023/03/29 07:15:52;;;;;;;;;5.25;4.00;;;;;;;;5064890;28;11572;-81
2023/03/29 07:18:18;;;;;;;;;4.25;2.50;;;;;;;;5084690;28;8871;-81
2023/03/29 07:20:43;;;;;;;;;4.00;3.00;;;;;;;;5069479;28;9007;-81
2023/03/29 07:23:09;;;;;;;;;2.50;2.00;;;;;;;;5089544;28;8945;-81
2023/03/29 07:25:35;;;;;;;;;2.00;2.00;;;;;;;;5063971;28;8887;-82
2023/03/29 07:28:00;;;;;;;;;3.00;3.00;;;;;;;;5083177;28;8833;-82
2023/03/29 07:30:28;;;;;;;;;4.50;3.25;;;;;;;;5084252;28;8892;-82
2023/03/29 07:32:54;;;;;;;;;6.00;4.00;;;;;;;;5048635;28;61932;-81
2023/03/29 07:35:20;;;;;;;;;3.75;3.75;;;;;;;;5044180;28;62465;-81
2023/03/29 07:37:47;;;;;;;;;4.00;4.00;;;;;;;;5042968;28;63548;-81
2023/03/29 07:40:28;;;;;;;;;5.25;5.25;;;;;;;;5043840;28;61695;-81
2023/03/29 07:43:07;;;;;;;;;4.00;4.00;;;;;;;;5032871;28;61801;-81
2023/03/29 07:45:48;;;;;;;;;2.00;1.25;;;;;;;;5022690;28;61861;-81
2023/03/29 07:48:16;;;;;;;;;3.75;2.25;;;;;;;;5026813;28;62107;-81
2023/03/29 07:50:42;;;;;;;;;8.00;6.00;;;;;;;;5049377;28;61874;-81
2023/03/29 07:53:08;;;;;;;;;3.00;3.00;;;;;;;;5023553;28;62053;-81
2023/03/29 07:55:33;;;;;;;;;6.00;4.00;;;;;;;;5022739;28;62354;-81
2023/03/29 07:57:59;;;;;;;;;4.75;4.75;;;;;;;;5023062;28;63045;-81
2023/03/29 08:00:26;;;;;;;;;7.00;3.75;;;;;;;;5025670;28;61787;-81
2023/03/29 08:02:51;;;;;;;;;11.50;6.00;;;;;;;;5062276;28;62143;-81
2023/03/29 08:05:17;;;;;;;;;6.00;3.00;;;;;;;;5042723;28;62032;-81
2023/03/29 08:07:43;;;;;;;;;4.00;3.00;;;;;;;;5061410;28;61901;-81
2023/03/29 08:10:10;;;;;;;;;5.75;2.75;;;;;;;;5043893;28;61833;-81
2023/03/29 08:12:36;;;;;;;;;4.75;4.75;;;;;;;;5045189;28;62150;-81
2023/03/29 08:15:04;;;;;;;;;3.25;3.00;;;;;;;;5047526;28;61983;-81
2023/03/29 08:17:29;;;;;;;;;6.00;3.75;;;;;;;;5028826;28;63807;-81
2023/03/29 08:19:54;;;;;;;;;2.00;2.00;;;;;;;;5027012;28;61895;-81
2023/03/29 08:22:20;;;;;;;;;3.75;3.75;;;;;;;;5056108;28;61401;-81
2023/03/29 08:24:46;;;;;;;;;4.00;4.00;;;;;;;;5043053;28;62298;-81
2023/03/29 08:27:11;;;;;;;;;3.00;2.00;;;;;;;;5049819;28;62724;-81
2023/03/29 08:29:37;;;;;;;;;3.00;3.00;;;;;;;;5030794;28;61912;-81
2023/03/29 08:32:14;;;;;;;;;2.00;2.00;;;;;;;;5058222;28;61920;-81
2023/03/29 08:34:44;;;;;;;;;7.75;3.50;;;;;;;;5045485;28;61922;-81
2023/03/29 08:37:09;;;;;;;;;3.00;3.00;;;;;;;;5046602;28;63802;-81
2023/03/29 08:39:36;;;;;;;;;6.00;3.00;;;;;;;;5064375;28;61943;-81
2023/03/29 08:42:19;;;;;;;;;6.00;4.00;;;;;;;;5047190;28;61844;-81
2023/03/29 08:44:51;;;;;;;;;2.75;2.00;;;;;;;;5065282;28;61871;-81
2023/03/29 08:47:24;;;;;;;;;4.50;2.50;;;;;;;;5034195;28;62011;-81
2023/03/29 08:49:52;;;;;;;;;6.25;4.25;;;;;;;;5025286;28;62043;-81
2023/03/29 08:52:26;;;;;;;;;4.75;2.50;;;;;;;;5026692;28;61932;-81
2023/03/29 08:54:54;;;;;;;;;4.00;2.50;;;;;;;;5037671;28;61645;-81
2023/03/29 08:57:20;;;;;;;;;8.25;5.00;;;;;;;;5046199;28;63848;-81
2023/03/29 08:59:48;;;;;;;;;3.00;3.00;;;;;;;;5027139;28;61863;-81
2023/03/29 09:02:16;;;;;;;;;4.00;2.50;;;;;;;;5032142;28;61741;-81
2023/03/29 09:04:42;;;;;;;;;5.25;3.00;;;;;;;;5045473;28;62420;-82
2023/03/29 09:07:08;;;;;;;;;6.00;3.00;;;;;;;;5039163;28;64405;-82
2023/03/29 09:09:34;;;;;;;;;4.25;4.25;;;;;;;;5026794;28;61899;-81
2023/03/29 09:12:11;;;;;;;;;2.00;2.00;;;;;;;;5046157;28;61912;-81
2023/03/29 09:14:55;;;;;;;;;4.50;2.50;;;;;;;;5026646;28;61651;-82
2023/03/29 09:17:35;;;;;;;;;2.00;2.00;;;;;;;;5037145;28;64498;-81
2023/03/29 09:20:20;;;;;;;;;3.50;3.50;;;;;;;;5045448;28;61722;-81
2023/03/29 09:22:48;;;;;;;;;4.50;3.50;;;;;;;;5046883;28;61713;-82
2023/03/29 09:25:43;;;;;;;;;3.00;2.00;;;;;;;;5045884;28;61976;-82
2023/03/29 09:28:08;;;;;;;;;4.00;2.00;;;;;;;;5045410;28;65031;-81
2023/03/29 09:30:40;;;;;;;;;4.00;2.50;;;;;;;;5045666;28;62176;-81
2023/03/29 09:33:13;;;;;;;;;3.00;2.00;;;;;;;;5072087;28;61789;-81
2023/03/29 09:35:52;;;;;;;;;6.00;3.25;;;;;;;;5079244;28;11441;-82
2023/03/29 09:38:19;;;;;;;;;2.00;2.00;;;;;;;;5086837;28;10333;-81
2023/03/29 09:40:51;;;;;;;;;6.25;2.75;;;;;;;;5105190;28;9926;-81
2023/03/29 09:43:20;;;;;;;;;4.25;3.25;;;;;;;;5104117;28;10048;-81
2023/03/29 09:45:48;;;;;;;;;5.75;3.00;;;;;;;;5075960;28;9969;-82
2023/03/29 09:48:16;;;;;;;;;4.25;3.25;;;;;;;;5070462;28;11253;-81
2023/03/29 09:50:44;;;;;;;;;3.00;3.00;;;;;;;;5066564;28;9670;-82
2023/03/29 09:53:10;;;;;;;;;2.75;2.75;;;;;;;;5065217;28;10147;-82
2023/03/29 09:55:38;;;;;;;;;4.50;3.25;;;;;;;;5080926;28;10042;-81
2023/03/29 09:58:12;;;;;;;;;1.75;1.75;;;;;;;;5082805;28;8811;-81
2023/03/29 10:00:38;;;;;;;;;6.75;3.25;;;;;;;;5086179;28;9899;-82
2023/03/29 10:03:03;;;;;;;;;6.25;2.75;;;;;;;;5070552;28;9914;-82
2023/03/29 10:05:30;;;;;;;;;3.00;3.00;;;;;;;;5038954;28;61970;-81
2023/03/29 10:07:57;;;;;;;;;3.75;2.50;;;;;;;;5028817;28;61820;-81
2023/03/29 10:10:26;;;;;;;;;2.00;2.00;;;;;;;;5024905;28;61843;-81
2023/03/29 10:13:02;;;;;;;;;2.75;2.00;;;;;;;;5070172;28;62001;-82
2023/03/29 10:15:30;;;;;;;;;2.00;2.00;;;;;;;;5093923;28;12410;-83
2023/03/29 10:18:06;;;;;;;;;3.00;3.00;;;;;;;;5094237;28;10098;-82
2023/03/29 10:20:35;;;;;;;;;2.25;2.25;;;;;;;;5077523;28;9674;-81
2023/03/29 10:23:00;;;;;;;;;4.50;2.75;;;;;;;;5056528;28;9819;-82
2023/03/29 10:25:30;;;;;;;;;3.00;2.00;;;;;;;;5077295;28;10062;-82
2023/03/29 10:28:03;;;;;;;;;2.00;2.00;;;;;;;;5093036;28;8795;-82
2023/03/29 10:30:36;;;;;;;;;2.00;2.00;;;;;;;;5075019;28;9865;-82
2023/03/29 10:33:08;;;;;;;;;3.75;2.00;;;;;;;;5077379;28;9837;-81
2023/03/29 10:35:40;;;;;;;;;4.00;3.00;;;;;;;;5090452;28;9671;-81
2023/03/29 10:38:09;;;;;;;;;7.25;6.00;;;;;;;;5085102;28;10024;-82
2023/03/29 10:40:42;;;;;;;;;6.00;3.50;;;;;;;;5074783;28;10578;-81
2023/03/29 10:43:20;;;;;;;;;4.00;1.25;;;;;;;;5091682;28;9810;-83
2023/03/29 10:45:56;;;;;;;;;5.25;1.75;;;;;;;;5084871;28;9668;-90
2023/03/29 10:48:28;;;;;;;;;3.25;1.75;;;;;;;;5095191;28;9796;-82
2023/03/29 10:51:17;;;;;;;;;2.00;2.00;;;;;;;;5085467;28;9511;-85
2023/03/29 10:53:42;;;;;;;;;8.00;4.75;;;;;;;;5098578;28;9743;-86
2023/03/29 10:56:10;;;;;;;;;23.50;19.25;;;;;;;;5064330;28;9927;-88
2023/03/29 10:58:56;;;;;;;;;2.50;2.00;;;;;;;;5069979;28;10008;-85
2023/03/29 11:01:53;;;;;;;;;4.00;2.67;;;;;;;;5039091;28;9661;-90
2023/03/29 11:04:22;;;;;;;;;7.75;2.00;;;;;;;;5014741;28;9506;-92
2023/03/29 11:07:15;;;;;;;;;3.67;1.67;;;;;;;;5003356;28;9560;-87
2023/03/29 11:09:59;;;;;;;;;3.00;3.00;;;;;;;;5029683;28;9777;-87
2023/03/29 11:12:55;;;;;;;;;3.67;3.00;;;;;;;;5023411;28;9251;-93
2023/03/29 11:15:23;;;;;;;;;3.00;2.00;;;;;;;;5018579;28;9606;-88
2023/03/29 11:18:16;;;;;;;;;3.00;1.67;;;;;;;;5019843;28;9331;-86
2023/03/29 11:23:49;;;;;;;;;1.00;1.00;;;;;;;;5098530;22;9205;-86
2023/03/29 11:26:30;;;;;;;;;1.33;1.00;;;;;;;;5090879;28;9340;-86
2023/03/29 11:29:19;;;;;;;;;1.33;0.67;;;;;;;;5065640;28;9478;-86
2023/03/29 11:32:09;;;;;;;;;5.00;2.00;;;;;;;;5086571;28;9512;-85
2023/03/29 11:34:59;;;;;;;;;1.00;1.00;;;;;;;;5084608;28;9421;-86
2023/03/29 11:37:36;;;;;;;;;0.00;0.00;;;;;;;;5070747;28;9276;-86
2023/03/29 11:40:04;;;;;;;;;1.00;1.00;;;;;;;;5072456;28;9280;-86
2023/03/29 11:42:32;;;;;;;;;2.00;2.00;;;;;;;;5077470;28;10044;-86
2023/03/29 11:44:59;;;;;;;;;0.67;0.67;;;;;;;;5076024;28;9240;-86
2023/03/29 11:47:32;;;;;;;;;1.67;0.33;;;;;;;;5071146;28;10331;-85
2023/03/29 11:49:57;;;;;;;;;2.00;2.00;;;;;;;;5086876;28;9351;-86
2023/03/29 11:52:28;;;;;;;;;1.00;1.00;;;;;;;;5092145;28;9614;-86
2023/03/29 11:54:56;;;;;;;;;2.67;1.33;;;;;;;;5091517;28;8814;-86
2023/03/29 11:57:24;;;;;;;;;0.67;0.67;;;;;;;;5092392;28;10241;-86
2023/03/29 12:00:00;;;;;;;;;1.33;0.67;;;;;;;;5070411;28;9388;-86
2023/03/29 12:02:38;;;;;;;;;2.33;0.67;;;;;;;;5093538;28;10100;-86
2023/03/29 12:05:26;;;;;;;;;1.67;1.00;;;;;;;;5069931;28;9189;-86
2023/03/29 12:08:14;;;;;;;;;1.67;1.67;;;;;;;;5091961;28;9094;-86
2023/03/29 12:11:04;;;;;;;;;2.33;1.00;;;;;;;;5089082;28;8905;-86
2023/03/29 12:13:44;;;;;;;;;1.00;1.00;;;;;;;;5084180;28;9314;-85
2023/03/29 12:16:16;;;;;;;;;0.00;0.00;;;;;;;;5079034;28;9197;-87
2023/03/29 12:18:59;;;;;;;;;2.33;0.67;;;;;;;;5081264;28;9056;-86
2023/03/29 12:21:36;;;;;;;;;1.00;1.00;;;;;;;;5090142;28;9112;-87
2023/03/29 12:24:18;;;;;;;;;2.00;1.67;;;;;;;;5077673;28;10118;-87
2023/03/29 12:26:52;;;;;;;;;4.67;3.00;;;;;;;;5084315;28;8898;-87
2023/03/29 12:29:36;;;;;;;;;2.67;1.00;;;;;;;;5080925;28;10042;-87
2023/03/29 12:32:02;;;;;;;;;2.33;0.67;;;;;;;;5081825;28;9041;-86
2023/03/29 12:34:33;;;;;;;;;1.00;0.33;;;;;;;;5101696;28;9122;-87
2023/03/29 12:37:18;;;;;;;;;0.67;0.67;;;;;;;;5099442;28;8864;-87
2023/03/29 12:39:45;;;;;;;;;0.33;0.33;;;;;;;;5083402;28;8966;-87
2023/03/29 12:42:16;;;;;;;;;1.00;1.00;;;;;;;;5071898;28;9207;-87
2023/03/29 12:44:46;;;;;;;;;1.00;1.00;;;;;;;;5062990;28;10038;-87
2023/03/29 12:47:18;;;;;;;;;0.67;0.67;;;;;;;;5071417;28;9079;-87
2023/03/29 12:49:44;;;;;;;;;0.67;0.67;;;;;;;;5083845;28;8967;-87
2023/03/29 12:52:25;;;;;;;;;1.33;0.00;;;;;;;;5101557;28;8989;-87
2023/03/29 12:54:54;;;;;;;;;1.67;1.33;;;;;;;;5081440;28;10228;-87
2023/03/29 12:57:28;;;;;;;;;1.00;1.00;;;;;;;;5079992;28;8823;-87
2023/03/29 13:00:25;;;;;;;;;0.00;0.00;;;;;;;;5070359;28;8789;-87
2023/03/29 13:03:22;;;;;;;;;0.33;0.33;;;;;;;;5063512;28;8787;-87
2023/03/29 13:06:17;;;;;;;;;1.00;1.00;;;;;;;;5100562;28;9043;-85
2023/03/29 13:08:52;;;;;;;;;3.00;1.00;;;;;;;;5086908;28;8953;-84
2023/03/29 13:11:41;;;;;;;;;2.00;1.00;;;;;;;;5086242;28;9001;-84
2023/03/29 13:14:18;;;;;;;;;1.33;0.33;;;;;;;;5082425;28;10086;-84
2023/03/29 13:16:46;;;;;;;;;3.67;2.00;;;;;;;;5084074;28;10452;-79
2023/03/29 13:19:47;;;;;;;;;1.25;0.75;;;;;;;;5079193;28;8979;-84
2023/03/29 13:22:12;;;;;;;;;0.25;0.25;;;;;;;;5054356;28;8819;-87
2023/03/29 13:24:39;;;;;;;;;1.33;1.33;;;;;;;;5104169;28;8802;-86
2023/03/29 13:27:30;;;;;;;;;1.00;1.00;;;;;;;;5093967;28;10012;-87
2023/03/29 13:30:06;;;;;;;;;1.00;1.00;;;;;;;;5081529;28;8807;-87
2023/03/29 13:32:40;;;;;;;;;2.25;0.00;;;;;;;;5086302;28;8798;-87
2023/03/29 13:35:17;;;;;;;;;0.67;0.67;;;;;;;;5086326;28;8731;-86
2023/03/29 13:37:44;;;;;;;;;0.67;0.67;;;;;;;;5086136;28;9737;-87
2023/03/29 13:40:32;;;;;;;;;1.33;0.67;;;;;;;;5086808;28;8809;-88
2023/03/29 13:42:59;;;;;;;;;2.50;1.25;;;;;;;;5087017;28;9029;-87
2023/03/29 13:45:27;;;;;;;;;1.00;1.00;;;;;;;;5105455;28;8727;-86
2023/03/29 13:48:03;;;;;;;;;0.75;0.75;;;;;;;;5086672;28;10120;-86
2023/03/29 13:50:38;;;;;;;;;1.50;0.75;;;;;;;;5082323;28;8734;-87
2023/03/29 13:53:40;;;;;;;;;1.00;1.00;;;;;;;;5066022;28;8763;-88
2023/03/29 13:56:15;;;;;;;;;1.00;1.00;;;;;;;;5015176;28;8885;-86
2023/03/29 13:58:55;;;;;;;;;1.75;1.75;;;;;;;;5007808;28;9121;-86
2023/03/29 14:01:27;;;;;;;;;0.75;0.75;;;;;;;;5013637;28;8804;-87
2023/03/29 14:03:55;;;;;;;;;0.25;0.25;;;;;;;;5021941;28;8803;-88
2023/03/29 14:06:29;;;;;;;;;0.50;0.00;;;;;;;;5021371;28;8759;-87
2023/03/29 14:08:56;;;;;;;;;1.75;1.75;;;;;;;;5021457;28;8804;-86
2023/03/29 14:11:27;;;;;;;;;2.75;1.00;;;;;;;;5020719;28;8804;-86
2023/03/29 14:13:54;;;;;;;;;1.25;1.25;;;;;;;;5005151;28;8796;-89
2023/03/29 14:16:20;;;;;;;;;0.75;0.75;;;;;;;;5021818;28;8797;-89
2023/03/29 14:18:49;;;;;;;;;3.67;3.00;;;;;;;;5024107;28;8786;-89
2023/03/29 14:21:16;;;;;;;;;2.75;1.75;;;;;;;;5040362;28;10127;-89
2023/03/29 14:23:42;;;;;;;;;4.75;1.00;;;;;;;;5032818;28;8800;-89
2023/03/29 14:26:18;;;;;;;;;0.75;0.00;;;;;;;;5040806;28;8793;-89
2023/03/29 14:28:48;;;;;;;;;0.75;0.75;;;;;;;;5028326;28;9981;-89
2023/03/29 14:31:20;;;;;;;;;1.00;1.00;;;;;;;;5080427;28;8785;-88
2023/03/29 14:33:50;;;;;;;;;5.00;5.00;;;;;;;;5083294;28;8765;-89
2023/03/29 14:36:19;;;;;;;;;0.75;0.75;;;;;;;;5074567;28;8869;-87
2023/03/29 14:38:47;;;;;;;;;1.75;1.75;;;;;;;;5103371;28;8763;-85
2023/03/29 14:41:12;;;;;;;;;1.00;1.00;;;;;;;;5084035;28;9288;-84
2023/03/29 14:43:44;;;;;;;;;2.00;2.00;;;;;;;;5101272;28;8881;-89
2023/03/29 14:46:20;;;;;;;;;4.00;3.67;;;;;;;;5067843;28;8880;-88
2023/03/29 14:48:49;;;;;;;;;1.50;1.50;;;;;;;;5073897;28;10086;-90
2023/03/29 14:51:19;;;;;;;;;1.75;1.75;;;;;;;;5091186;28;8730;-89
2023/03/29 14:53:46;;;;;;;;;2.00;2.00;;;;;;;;5073656;28;8851;-90
2023/03/29 14:56:16;;;;;;;;;2.67;1.33;;;;;;;;5093925;28;9203;-89
2023/03/29 14:58:53;;;;;;;;;1.67;0.67;;;;;;;;5076430;28;10029;-89
2023/03/29 15:01:31;;;;;;;;;3.00;1.67;;;;;;;;5076123;28;8881;-88
2023/03/29 15:04:10;;;;;;;;;3.00;0.75;;;;;;;;5077973;28;9831;-87
2023/03/29 15:06:40;;;;;;;;;1.00;1.00;;;;;;;;5086851;28;8785;-87
2023/03/29 15:09:12;;;;;;;;;2.00;2.00;;;;;;;;5071371;28;10234;-87
2023/03/29 15:11:57;;;;;;;;;1.67;0.00;;;;;;;;5064051;28;8815;-87
2023/03/29 15:14:29;;;;;;;;;3.00;2.00;;;;;;;;5070194;28;9902;-87